sensor_id;sensor_type;location;lat;lon;timestamp;temperature;humidity
13673;DHT22;6909;52.202;9.876;2023-02-20T00:01:23;5.90;99.90
13673;DHT22;6909;52.202;9.876;2023-02-20T00:03:50;5.90;99.90
13673;DHT22;6909;52.202;9.876;2023-02-20T00:06:16;5.90;99.90
13673;DHT22;6909;52.202;9.876;2023-02-20T00:08:43;5.90;99.90
13673;DHT22;6909;52.202;9.876;2023-02-20T00:11:11;5.90;99.90
13673;DHT22;6909;52.202;9.876;2023-02-20T00:13:39;6.00;99.90
13673;DHT22;6909;52.202;9.876;2023-02-20T00:16:09;6.00;99.90
13673;DHT22;6909;52.202;9.876;2023-02-20T00:18:36;6.10;99.90
13673;DHT22;6909;52.202;9.876;2023-02-20T00:21:04;6.10;99.90
13673;DHT22;6909;52.202;9.876;2023-02-20T00:23:31;6.20;99.90
13673;DHT22;6909;52.202;9.876;2023-02-20T00:25:58;6.10;99.90
13673;DHT22;6909;52.202;9.876;2023-02-20T00:28:26;6.20;99.90
13673;DHT22;6909;52.202;9.876;2023-02-20T00:30:54;6.20;99.90
13673;DHT22;6909;52.202;9.876;2023-02-20T00:33:20;6.20;99.90
13673;DHT22;6909;52.202;9.876;2023-02-20T00:35:47;6.20;99.90
13673;DHT22;6909;52.202;9.876;2023-02-20T00:38:14;6.20;99.90
13673;DHT22;6909;52.202;9.876;2023-02-20T00:40:41;6.20;99.90
13673;DHT22;6909;52.202;9.876;2023-02-20T00:43:07;6.20;99.90
13673;DHT22;6909;52.202;9.876;2023-02-20T00:45:35;6.20;99.90
13673;DHT22;6909;52.202;9.876;2023-02-20T00:48:02;6.20;99.90
13673;DHT22;6909;52.202;9.876;2023-02-20T00:50:29;6.20;99.90
13673;DHT22;6909;52.202;9.876;2023-02-20T00:52:55;6.20;99.90
13673;DHT22;6909;52.202;9.876;2023-02-20T00:55:22;6.20;99.90
13673;DHT22;6909;52.202;9.876;2023-02-20T00:57:49;6.30;99.90
13673;DHT22;6909;52.202;9.876;2023-02-20T01:00:18;6.30;99.90
13673;DHT22;6909;52.202;9.876;2023-02-20T01:02:47;6.20;99.90
13673;DHT22;6909;52.202;9.876;2023-02-20T01:05:14;6.20;99.90
13673;DHT22;6909;52.202;9.876;2023-02-20T01:07:41;6.20;99.90
13673;DHT22;6909;52.202;9.876;2023-02-20T01:10:08;6.30;99.90
13673;DHT22;6909;52.202;9.876;2023-02-20T01:12:35;6.20;99.90
13673;DHT22;6909;52.202;9.876;2023-02-20T01:15:02;6.20;99.90
13673;DHT22;6909;52.202;9.876;2023-02-20T01:17:29;6.20;99.90
13673;DHT22;6909;52.202;9.876;2023-02-20T01:19:57;6.20;99.90
13673;DHT22;6909;52.202;9.876;2023-02-20T01:22:24;6.10;99.90
13673;DHT22;6909;52.202;9.876;2023-02-20T01:24:50;6.10;99.90
13673;DHT22;6909;52.202;9.876;2023-02-20T01:27:17;6.20;99.90
13673;DHT22;6909;52.202;9.876;2023-02-20T01:29:44;6.20;99.90
13673;DHT22;6909;52.202;9.876;2023-02-20T01:32:11;6.20;99.90
13673;DHT22;6909;52.202;9.876;2023-02-20T01:34:38;6.20;99.90
13673;DHT22;6909;52.202;9.876;2023-02-20T01:37:10;6.20;99.90
13673;DHT22;6909;52.202;9.876;2023-02-20T01:39:38;6.20;99.90
13673;DHT22;6909;52.202;9.876;2023-02-20T01:42:07;6.20;99.90
13673;DHT22;6909;52.202;9.876;2023-02-20T01:44:36;6.20;99.90
13673;DHT22;6909;52.202;9.876;2023-02-20T01:47:05;6.20;99.90
13673;DHT22;6909;52.202;9.876;2023-02-20T01:49:34;6.20;99.90
13673;DHT22;6909;52.202;9.876;2023-02-20T01:52:09;6.20;99.90
13673;DHT22;6909;52.202;9.876;2023-02-20T01:54:37;6.10;99.90
13673;DHT22;6909;52.202;9.876;2023-02-20T01:57:08;6.10;99.90
13673;DHT22;6909;52.202;9.876;2023-02-20T01:59:38;6.10;99.90
13673;DHT22;6909;52.202;9.876;2023-02-20T02:02:06;6.10;99.90
13673;DHT22;6909;52.202;9.876;2023-02-20T02:04:35;6.10;99.90
13673;DHT22;6909;52.202;9.876;2023-02-20T02:07:03;6.10;99.90
13673;DHT22;6909;52.202;9.876;2023-02-20T02:09:37;6.10;99.90
13673;DHT22;6909;52.202;9.876;2023-02-20T02:12:05;6.10;99.90
13673;DHT22;6909;52.202;9.876;2023-02-20T02:14:33;6.00;99.90
13673;DHT22;6909;52.202;9.876;2023-02-20T02:20:16;5.90;99.90
13673;DHT22;6909;52.202;9.876;2023-02-20T02:23:10;5.90;99.90
13673;DHT22;6909;52.202;9.876;2023-02-20T02:25:50;5.90;99.90
13673;DHT22;6909;52.202;9.876;2023-02-20T02:28:47;5.90;99.90
13673;DHT22;6909;52.202;9.876;2023-02-20T02:31:47;5.80;99.90
13673;DHT22;6909;52.202;9.876;2023-02-20T02:34:45;5.80;99.90
13673;DHT22;6909;52.202;9.876;2023-02-20T02:37:18;5.70;99.90
13673;DHT22;6909;52.202;9.876;2023-02-20T02:39:53;5.70;99.90
13673;DHT22;6909;52.202;9.876;2023-02-20T02:42:28;5.70;99.90
13673;DHT22;6909;52.202;9.876;2023-02-20T02:45:02;5.60;99.90
13673;DHT22;6909;52.202;9.876;2023-02-20T02:47:36;5.50;99.90
13673;DHT22;6909;52.202;9.876;2023-02-20T02:50:11;5.40;99.90
13673;DHT22;6909;52.202;9.876;2023-02-20T02:52:39;5.40;99.90
13673;DHT22;6909;52.202;9.876;2023-02-20T02:55:16;5.40;99.90
13673;DHT22;6909;52.202;9.876;2023-02-20T02:57:43;5.40;99.90
13673;DHT22;6909;52.202;9.876;2023-02-20T03:00:12;5.40;99.90
13673;DHT22;6909;52.202;9.876;2023-02-20T03:02:44;5.30;99.90
13673;DHT22;6909;52.202;9.876;2023-02-20T03:05:14;5.30;99.90
13673;DHT22;6909;52.202;9.876;2023-02-20T03:07:46;5.30;99.90
13673;DHT22;6909;52.202;9.876;2023-02-20T03:10:17;5.30;99.90
13673;DHT22;6909;52.202;9.876;2023-02-20T03:12:48;5.50;99.90
13673;DHT22;6909;52.202;9.876;2023-02-20T03:15:21;5.50;99.90
13673;DHT22;6909;52.202;9.876;2023-02-20T03:18:10;5.60;99.90
13673;DHT22;6909;52.202;9.876;2023-02-20T03:20:41;5.60;99.90
13673;DHT22;6909;52.202;9.876;2023-02-20T03:23:13;5.70;99.90
13673;DHT22;6909;52.202;9.876;2023-02-20T03:25:46;5.70;99.90
13673;DHT22;6909;52.202;9.876;2023-02-20T03:28:17;5.80;99.90
13673;DHT22;6909;52.202;9.876;2023-02-20T03:30:46;5.80;99.90
13673;DHT22;6909;52.202;9.876;2023-02-20T03:33:18;5.80;99.90
13673;DHT22;6909;52.202;9.876;2023-02-20T03:36:05;5.80;99.90
13673;DHT22;6909;52.202;9.876;2023-02-20T03:38:58;5.80;99.90
13673;DHT22;6909;52.202;9.876;2023-02-20T03:41:45;5.80;99.90
13673;DHT22;6909;52.202;9.876;2023-02-20T03:44:31;5.80;99.90
13673;DHT22;6909;52.202;9.876;2023-02-20T03:47:00;5.80;99.90
13673;DHT22;6909;52.202;9.876;2023-02-20T03:49:31;5.80;99.90
13673;DHT22;6909;52.202;9.876;2023-02-20T03:52:17;5.80;99.90
13673;DHT22;6909;52.202;9.876;2023-02-20T03:54:45;5.80;99.90
13673;DHT22;6909;52.202;9.876;2023-02-20T03:57:15;5.80;99.90
13673;DHT22;6909;52.202;9.876;2023-02-20T03:59:47;5.90;99.90
13673;DHT22;6909;52.202;9.876;2023-02-20T04:02:20;6.00;99.90
13673;DHT22;6909;52.202;9.876;2023-02-20T04:04:51;6.00;99.90
13673;DHT22;6909;52.202;9.876;2023-02-20T04:07:22;6.10;99.90
13673;DHT22;6909;52.202;9.876;2023-02-20T04:09:54;6.10;99.90
13673;DHT22;6909;52.202;9.876;2023-02-20T04:12:24;6.10;99.90
13673;DHT22;6909;52.202;9.876;2023-02-20T04:14:53;6.10;99.90
13673;DHT22;6909;52.202;9.876;2023-02-20T04:17:23;6.10;99.90
13673;DHT22;6909;52.202;9.876;2023-02-20T04:19:51;6.10;99.90
13673;DHT22;6909;52.202;9.876;2023-02-20T04:22:21;6.10;99.90
13673;DHT22;6909;52.202;9.876;2023-02-20T04:24:53;6.10;99.90
13673;DHT22;6909;52.202;9.876;2023-02-20T04:27:21;6.10;99.90
13673;DHT22;6909;52.202;9.876;2023-02-20T04:29:48;6.20;99.90
13673;DHT22;6909;52.202;9.876;2023-02-20T04:32:15;6.30;99.90
13673;DHT22;6909;52.202;9.876;2023-02-20T04:34:42;6.30;99.90
13673;DHT22;6909;52.202;9.876;2023-02-20T04:37:10;6.30;99.90
13673;DHT22;6909;52.202;9.876;2023-02-20T04:39:37;6.30;99.90
13673;DHT22;6909;52.202;9.876;2023-02-20T04:42:06;6.30;99.90
13673;DHT22;6909;52.202;9.876;2023-02-20T04:44:32;6.30;99.90
13673;DHT22;6909;52.202;9.876;2023-02-20T04:47:03;6.30;99.90
13673;DHT22;6909;52.202;9.876;2023-02-20T04:49:30;6.20;99.90
13673;DHT22;6909;52.202;9.876;2023-02-20T04:51:57;6.20;99.90
13673;DHT22;6909;52.202;9.876;2023-02-20T04:54:24;6.30;99.90
13673;DHT22;6909;52.202;9.876;2023-02-20T04:56:51;6.20;99.90
13673;DHT22;6909;52.202;9.876;2023-02-20T04:59:19;6.30;99.90
13673;DHT22;6909;52.202;9.876;2023-02-20T05:01:46;6.30;99.90
13673;DHT22;6909;52.202;9.876;2023-02-20T05:04:16;6.30;99.90
13673;DHT22;6909;52.202;9.876;2023-02-20T05:06:45;6.40;99.90
13673;DHT22;6909;52.202;9.876;2023-02-20T05:09:12;6.50;99.90
13673;DHT22;6909;52.202;9.876;2023-02-20T05:11:39;6.50;99.90
13673;DHT22;6909;52.202;9.876;2023-02-20T05:14:06;6.50;99.90
13673;DHT22;6909;52.202;9.876;2023-02-20T05:16:36;6.50;99.90
13673;DHT22;6909;52.202;9.876;2023-02-20T05:19:02;6.50;99.90
13673;DHT22;6909;52.202;9.876;2023-02-20T05:21:29;6.50;99.90
13673;DHT22;6909;52.202;9.876;2023-02-20T05:24:13;6.60;99.90
13673;DHT22;6909;52.202;9.876;2023-02-20T05:26:43;6.60;99.90
13673;DHT22;6909;52.202;9.876;2023-02-20T05:29:10;6.60;99.90
13673;DHT22;6909;52.202;9.876;2023-02-20T05:31:39;6.60;99.90
13673;DHT22;6909;52.202;9.876;2023-02-20T05:34:06;6.60;99.90
13673;DHT22;6909;52.202;9.876;2023-02-20T05:36:33;6.70;99.90
13673;DHT22;6909;52.202;9.876;2023-02-20T05:39:00;6.70;99.90
13673;DHT22;6909;52.202;9.876;2023-02-20T05:41:27;6.70;99.90
13673;DHT22;6909;52.202;9.876;2023-02-20T05:43:53;6.70;99.90
13673;DHT22;6909;52.202;9.876;2023-02-20T05:46:22;6.70;99.90
13673;DHT22;6909;52.202;9.876;2023-02-20T05:48:51;6.70;99.90
13673;DHT22;6909;52.202;9.876;2023-02-20T05:51:20;6.70;99.90
13673;DHT22;6909;52.202;9.876;2023-02-20T05:53:47;6.70;99.90
13673;DHT22;6909;52.202;9.876;2023-02-20T05:56:14;6.70;99.90
13673;DHT22;6909;52.202;9.876;2023-02-20T05:58:41;6.60;99.90
13673;DHT22;6909;52.202;9.876;2023-02-20T06:01:08;6.70;99.90
13673;DHT22;6909;52.202;9.876;2023-02-20T06:03:34;6.70;99.90
13673;DHT22;6909;52.202;9.876;2023-02-20T06:06:03;6.70;99.90
13673;DHT22;6909;52.202;9.876;2023-02-20T06:08:29;6.70;99.90
13673;DHT22;6909;52.202;9.876;2023-02-20T06:10:56;6.70;99.90
13673;DHT22;6909;52.202;9.876;2023-02-20T06:13:23;6.80;99.90
13673;DHT22;6909;52.202;9.876;2023-02-20T06:15:49;6.80;99.90
13673;DHT22;6909;52.202;9.876;2023-02-20T06:18:16;6.80;99.90
13673;DHT22;6909;52.202;9.876;2023-02-20T06:20:43;6.80;99.90
13673;DHT22;6909;52.202;9.876;2023-02-20T06:23:11;6.90;99.90
13673;DHT22;6909;52.202;9.876;2023-02-20T06:25:37;6.90;99.90
13673;DHT22;6909;52.202;9.876;2023-02-20T06:28:04;6.80;99.90
13673;DHT22;6909;52.202;9.876;2023-02-20T06:30:31;6.90;99.90
13673;DHT22;6909;52.202;9.876;2023-02-20T06:32:58;6.90;99.90
13673;DHT22;6909;52.202;9.876;2023-02-20T06:35:24;6.90;99.90
13673;DHT22;6909;52.202;9.876;2023-02-20T06:37:51;6.90;99.90
13673;DHT22;6909;52.202;9.876;2023-02-20T06:40:19;6.90;99.90
13673;DHT22;6909;52.202;9.876;2023-02-20T06:42:46;7.00;99.90
13673;DHT22;6909;52.202;9.876;2023-02-20T06:45:13;7.10;99.90
13673;DHT22;6909;52.202;9.876;2023-02-20T06:47:39;7.00;99.90
13673;DHT22;6909;52.202;9.876;2023-02-20T06:50:06;7.00;99.90
13673;DHT22;6909;52.202;9.876;2023-02-20T06:52:33;7.10;99.90
13673;DHT22;6909;52.202;9.876;2023-02-20T06:55:00;7.10;99.90
13673;DHT22;6909;52.202;9.876;2023-02-20T06:57:28;7.10;99.90
13673;DHT22;6909;52.202;9.876;2023-02-20T06:59:57;7.20;99.90
13673;DHT22;6909;52.202;9.876;2023-02-20T07:02:23;7.20;99.90
13673;DHT22;6909;52.202;9.876;2023-02-20T07:04:50;7.20;99.90
13673;DHT22;6909;52.202;9.876;2023-02-20T07:07:17;7.20;99.90
13673;DHT22;6909;52.202;9.876;2023-02-20T07:09:43;7.20;99.90
13673;DHT22;6909;52.202;9.876;2023-02-20T07:12:10;7.20;99.90
13673;DHT22;6909;52.202;9.876;2023-02-20T07:14:38;7.20;99.90
13673;DHT22;6909;52.202;9.876;2023-02-20T07:17:05;7.20;99.90
13673;DHT22;6909;52.202;9.876;2023-02-20T07:19:31;7.30;99.90
13673;DHT22;6909;52.202;9.876;2023-02-20T07:21:58;7.30;99.90
13673;DHT22;6909;52.202;9.876;2023-02-20T07:24:25;7.30;99.90
13673;DHT22;6909;52.202;9.876;2023-02-20T07:26:53;7.30;99.90
13673;DHT22;6909;52.202;9.876;2023-02-20T07:29:19;7.30;99.90
13673;DHT22;6909;52.202;9.876;2023-02-20T07:31:47;7.30;99.90
13673;DHT22;6909;52.202;9.876;2023-02-20T07:34:14;7.30;99.90
13673;DHT22;6909;52.202;9.876;2023-02-20T07:36:41;7.40;99.90
13673;DHT22;6909;52.202;9.876;2023-02-20T07:39:09;7.50;99.90
13673;DHT22;6909;52.202;9.876;2023-02-20T07:41:37;7.40;99.90
13673;DHT22;6909;52.202;9.876;2023-02-20T07:44:05;7.40;99.90
13673;DHT22;6909;52.202;9.876;2023-02-20T07:46:32;7.50;99.90
13673;DHT22;6909;52.202;9.876;2023-02-20T07:49:01;7.50;99.90
13673;DHT22;6909;52.202;9.876;2023-02-20T07:51:28;7.50;99.90
13673;DHT22;6909;52.202;9.876;2023-02-20T07:53:55;7.60;99.90
13673;DHT22;6909;52.202;9.876;2023-02-20T07:56:22;7.60;99.90
13673;DHT22;6909;52.202;9.876;2023-02-20T07:58:49;7.70;99.90
13673;DHT22;6909;52.202;9.876;2023-02-20T08:01:17;7.70;99.90
13673;DHT22;6909;52.202;9.876;2023-02-20T08:03:44;7.70;99.90
13673;DHT22;6909;52.202;9.876;2023-02-20T08:06:12;7.80;99.90
13673;DHT22;6909;52.202;9.876;2023-02-20T08:08:38;7.80;99.90
13673;DHT22;6909;52.202;9.876;2023-02-20T08:11:05;7.70;99.90
13673;DHT22;6909;52.202;9.876;2023-02-20T08:13:32;7.80;99.90
13673;DHT22;6909;52.202;9.876;2023-02-20T08:15:59;7.80;99.90
13673;DHT22;6909;52.202;9.876;2023-02-20T08:18:25;7.80;99.90
13673;DHT22;6909;52.202;9.876;2023-02-20T08:20:52;7.80;99.90
13673;DHT22;6909;52.202;9.876;2023-02-20T08:23:22;7.80;99.90
13673;DHT22;6909;52.202;9.876;2023-02-20T08:25:49;7.80;99.90
13673;DHT22;6909;52.202;9.876;2023-02-20T08:28:16;7.90;99.90
13673;DHT22;6909;52.202;9.876;2023-02-20T08:30:43;7.80;99.90
13673;DHT22;6909;52.202;9.876;2023-02-20T08:33:09;7.90;99.90
13673;DHT22;6909;52.202;9.876;2023-02-20T08:35:36;7.90;99.90
13673;DHT22;6909;52.202;9.876;2023-02-20T08:38:04;8.00;99.90
13673;DHT22;6909;52.202;9.876;2023-02-20T08:40:33;7.90;99.90
13673;DHT22;6909;52.202;9.876;2023-02-20T08:43:00;8.00;99.90
13673;DHT22;6909;52.202;9.876;2023-02-20T08:45:27;8.00;99.90
13673;DHT22;6909;52.202;9.876;2023-02-20T08:47:56;8.00;99.90
13673;DHT22;6909;52.202;9.876;2023-02-20T08:50:26;8.00;99.90
13673;DHT22;6909;52.202;9.876;2023-02-20T08:52:52;8.10;99.90
13673;DHT22;6909;52.202;9.876;2023-02-20T08:55:19;8.20;99.90
13673;DHT22;6909;52.202;9.876;2023-02-20T08:57:47;8.40;99.90
13673;DHT22;6909;52.202;9.876;2023-02-20T09:00:14;8.50;99.90
13673;DHT22;6909;52.202;9.876;2023-02-20T09:02:42;8.50;99.90
13673;DHT22;6909;52.202;9.876;2023-02-20T09:05:09;8.50;99.90
13673;DHT22;6909;52.202;9.876;2023-02-20T09:07:35;8.40;99.90
13673;DHT22;6909;52.202;9.876;2023-02-20T09:10:02;8.40;99.90
13673;DHT22;6909;52.202;9.876;2023-02-20T09:12:32;8.40;99.90
13673;DHT22;6909;52.202;9.876;2023-02-20T09:15:03;8.50;99.90
13673;DHT22;6909;52.202;9.876;2023-02-20T09:17:30;8.50;99.90
13673;DHT22;6909;52.202;9.876;2023-02-20T09:19:57;8.60;99.90
13673;DHT22;6909;52.202;9.876;2023-02-20T09:22:24;8.70;99.90
13673;DHT22;6909;52.202;9.876;2023-02-20T09:24:52;8.80;99.90
13673;DHT22;6909;52.202;9.876;2023-02-20T09:27:19;8.70;99.90
13673;DHT22;6909;52.202;9.876;2023-02-20T09:29:46;8.80;99.90
13673;DHT22;6909;52.202;9.876;2023-02-20T09:32:14;8.70;99.90
13673;DHT22;6909;52.202;9.876;2023-02-20T09:34:40;8.90;99.90
13673;DHT22;6909;52.202;9.876;2023-02-20T09:37:08;8.90;99.90
13673;DHT22;6909;52.202;9.876;2023-02-20T09:39:35;9.00;99.90
13673;DHT22;6909;52.202;9.876;2023-02-20T09:42:13;9.00;99.90
13673;DHT22;6909;52.202;9.876;2023-02-20T09:44:49;9.00;99.90
13673;DHT22;6909;52.202;9.876;2023-02-20T09:47:27;9.10;99.90
13673;DHT22;6909;52.202;9.876;2023-02-20T09:49:57;9.00;99.90
13673;DHT22;6909;52.202;9.876;2023-02-20T09:52:25;9.00;99.90
13673;DHT22;6909;52.202;9.876;2023-02-20T09:54:59;8.90;99.90
13673;DHT22;6909;52.202;9.876;2023-02-20T09:57:28;8.90;99.90
13673;DHT22;6909;52.202;9.876;2023-02-20T10:00:02;9.00;99.90
13673;DHT22;6909;52.202;9.876;2023-02-20T10:02:34;8.90;99.90
13673;DHT22;6909;52.202;9.876;2023-02-20T10:05:06;8.90;99.90
13673;DHT22;6909;52.202;9.876;2023-02-20T10:07:37;8.90;99.90
13673;DHT22;6909;52.202;9.876;2023-02-20T10:10:17;8.90;99.90
13673;DHT22;6909;52.202;9.876;2023-02-20T10:12:50;8.80;99.90
13673;DHT22;6909;52.202;9.876;2023-02-20T10:15:24;8.60;99.90
13673;DHT22;6909;52.202;9.876;2023-02-20T10:17:58;8.60;99.90
13673;DHT22;6909;52.202;9.876;2023-02-20T10:20:34;8.50;99.90
13673;DHT22;6909;52.202;9.876;2023-02-20T10:23:09;8.50;99.90
13673;DHT22;6909;52.202;9.876;2023-02-20T10:25:41;8.50;99.90
13673;DHT22;6909;52.202;9.876;2023-02-20T10:28:12;8.50;99.90
13673;DHT22;6909;52.202;9.876;2023-02-20T10:30:43;8.50;99.90
13673;DHT22;6909;52.202;9.876;2023-02-20T10:33:21;8.50;99.90
13673;DHT22;6909;52.202;9.876;2023-02-20T10:35:52;8.50;99.90
13673;DHT22;6909;52.202;9.876;2023-02-20T10:38:23;8.60;99.90
13673;DHT22;6909;52.202;9.876;2023-02-20T10:40:58;8.70;99.90
13673;DHT22;6909;52.202;9.876;2023-02-20T10:43:33;8.70;99.90
13673;DHT22;6909;52.202;9.876;2023-02-20T10:46:07;8.80;99.90
13673;DHT22;6909;52.202;9.876;2023-02-20T10:48:37;8.80;99.90
13673;DHT22;6909;52.202;9.876;2023-02-20T10:51:09;8.80;99.90
13673;DHT22;6909;52.202;9.876;2023-02-20T10:53:41;8.80;99.90
13673;DHT22;6909;52.202;9.876;2023-02-20T10:56:13;8.90;99.90
13673;DHT22;6909;52.202;9.876;2023-02-20T10:58:46;8.80;99.90
13673;DHT22;6909;52.202;9.876;2023-02-20T11:01:18;8.70;99.90
13673;DHT22;6909;52.202;9.876;2023-02-20T11:03:51;8.60;99.90
13673;DHT22;6909;52.202;9.876;2023-02-20T11:06:25;8.60;99.90
13673;DHT22;6909;52.202;9.876;2023-02-20T11:08:54;8.60;99.90
13673;DHT22;6909;52.202;9.876;2023-02-20T11:11:24;8.50;99.90
13673;DHT22;6909;52.202;9.876;2023-02-20T11:13:53;8.50;99.90
13673;DHT22;6909;52.202;9.876;2023-02-20T11:16:26;8.60;99.90
13673;DHT22;6909;52.202;9.876;2023-02-20T11:19:02;8.60;99.90
13673;DHT22;6909;52.202;9.876;2023-02-20T11:21:36;8.60;99.90
13673;DHT22;6909;52.202;9.876;2023-02-20T11:24:27;8.60;99.90
13673;DHT22;6909;52.202;9.876;2023-02-20T11:26:57;8.50;99.90
13673;DHT22;6909;52.202;9.876;2023-02-20T11:29:28;8.50;99.90
13673;DHT22;6909;52.202;9.876;2023-02-20T11:32:16;8.40;99.90
13673;DHT22;6909;52.202;9.876;2023-02-20T11:34:44;8.40;99.90
13673;DHT22;6909;52.202;9.876;2023-02-20T11:37:12;8.40;99.90
13673;DHT22;6909;52.202;9.876;2023-02-20T11:39:45;8.30;99.90
13673;DHT22;6909;52.202;9.876;2023-02-20T11:42:14;8.20;99.90
13673;DHT22;6909;52.202;9.876;2023-02-20T11:44:41;8.20;99.90
13673;DHT22;6909;52.202;9.876;2023-02-20T11:47:16;8.20;99.90
13673;DHT22;6909;52.202;9.876;2023-02-20T11:49:45;8.10;99.90
13673;DHT22;6909;52.202;9.876;2023-02-20T11:52:16;8.10;99.90
13673;DHT22;6909;52.202;9.876;2023-02-20T11:54:44;8.10;99.90
13673;DHT22;6909;52.202;9.876;2023-02-20T11:57:26;8.00;99.90
13673;DHT22;6909;52.202;9.876;2023-02-20T12:00:09;8.00;99.90
13673;DHT22;6909;52.202;9.876;2023-02-20T12:02:35;8.00;99.90
13673;DHT22;6909;52.202;9.876;2023-02-20T12:05:07;8.10;99.90
13673;DHT22;6909;52.202;9.876;2023-02-20T12:07:37;8.00;99.90
13673;DHT22;6909;52.202;9.876;2023-02-20T12:10:15;8.00;99.90
13673;DHT22;6909;52.202;9.876;2023-02-20T12:12:48;8.10;99.90
13673;DHT22;6909;52.202;9.876;2023-02-20T12:15:17;8.10;99.90
13673;DHT22;6909;52.202;9.876;2023-02-20T12:21:07;8.10;99.90
13673;DHT22;6909;52.202;9.876;2023-02-20T12:23:45;8.10;99.90
13673;DHT22;6909;52.202;9.876;2023-02-20T12:26:19;8.00;99.90
13673;DHT22;6909;52.202;9.876;2023-02-20T12:28:56;7.90;99.90
13673;DHT22;6909;52.202;9.876;2023-02-20T12:31:41;7.90;99.90
13673;DHT22;6909;52.202;9.876;2023-02-20T12:34:20;7.90;99.90
13673;DHT22;6909;52.202;9.876;2023-02-20T12:36:57;7.90;99.90
13673;DHT22;6909;52.202;9.876;2023-02-20T12:39:38;7.80;99.90
13673;DHT22;6909;52.202;9.876;2023-02-20T12:42:19;7.80;99.90
13673;DHT22;6909;52.202;9.876;2023-02-20T12:45:06;8.00;99.90
13673;DHT22;6909;52.202;9.876;2023-02-20T12:47:38;8.00;99.90
13673;DHT22;6909;52.202;9.876;2023-02-20T12:50:32;8.00;99.90
13673;DHT22;6909;52.202;9.876;2023-02-20T12:53:12;8.00;99.90
13673;DHT22;6909;52.202;9.876;2023-02-20T12:55:53;8.00;99.90
13673;DHT22;6909;52.202;9.876;2023-02-20T12:58:28;8.00;99.90
13673;DHT22;6909;52.202;9.876;2023-02-20T13:00:59;8.00;99.90
13673;DHT22;6909;52.202;9.876;2023-02-20T13:03:37;8.10;99.90
13673;DHT22;6909;52.202;9.876;2023-02-20T13:06:05;8.00;99.90
13673;DHT22;6909;52.202;9.876;2023-02-20T13:08:35;8.00;99.90
13673;DHT22;6909;52.202;9.876;2023-02-20T13:11:10;8.00;99.90
13673;DHT22;6909;52.202;9.876;2023-02-20T13:13:52;8.00;99.90
13673;DHT22;6909;52.202;9.876;2023-02-20T13:16:25;8.10;99.90
13673;DHT22;6909;52.202;9.876;2023-02-20T13:19:00;8.10;99.90
13673;DHT22;6909;52.202;9.876;2023-02-20T13:21:29;8.00;99.90
13673;DHT22;6909;52.202;9.876;2023-02-20T13:26:51;8.00;99.90
13673;DHT22;6909;52.202;9.876;2023-02-20T13:29:19;7.90;99.90
13673;DHT22;6909;52.202;9.876;2023-02-20T13:31:49;7.90;99.90
13673;DHT22;6909;52.202;9.876;2023-02-20T13:34:31;7.90;99.90
13673;DHT22;6909;52.202;9.876;2023-02-20T13:36:59;7.90;99.90
13673;DHT22;6909;52.202;9.876;2023-02-20T13:39:43;7.90;99.90
13673;DHT22;6909;52.202;9.876;2023-02-20T13:42:31;8.00;99.90
13673;DHT22;6909;52.202;9.876;2023-02-20T13:44:59;8.00;99.90
13673;DHT22;6909;52.202;9.876;2023-02-20T13:47:39;8.00;99.90
13673;DHT22;6909;52.202;9.876;2023-02-20T13:50:26;8.10;99.90
13673;DHT22;6909;52.202;9.876;2023-02-20T13:52:54;8.10;99.90
13673;DHT22;6909;52.202;9.876;2023-02-20T13:55:23;8.20;99.90
13673;DHT22;6909;52.202;9.876;2023-02-20T13:57:54;8.20;99.90
13673;DHT22;6909;52.202;9.876;2023-02-20T14:00:28;8.20;99.90
13673;DHT22;6909;52.202;9.876;2023-02-20T14:02:59;8.20;99.90
13673;DHT22;6909;52.202;9.876;2023-02-20T14:05:28;8.30;99.90
13673;DHT22;6909;52.202;9.876;2023-02-20T14:07:55;8.40;99.90
13673;DHT22;6909;52.202;9.876;2023-02-20T14:10:26;8.50;99.90
13673;DHT22;6909;52.202;9.876;2023-02-20T14:12:58;8.50;99.90
13673;DHT22;6909;52.202;9.876;2023-02-20T14:15:26;8.50;99.90
13673;DHT22;6909;52.202;9.876;2023-02-20T14:17:53;8.50;99.90
13673;DHT22;6909;52.202;9.876;2023-02-20T14:20:23;8.60;99.90
13673;DHT22;6909;52.202;9.876;2023-02-20T14:23:09;8.60;99.90
13673;DHT22;6909;52.202;9.876;2023-02-20T14:25:41;8.70;99.90
13673;DHT22;6909;52.202;9.876;2023-02-20T14:28:13;8.70;99.90
13673;DHT22;6909;52.202;9.876;2023-02-20T14:30:41;8.80;99.90
13673;DHT22;6909;52.202;9.876;2023-02-20T14:33:19;8.80;99.90
13673;DHT22;6909;52.202;9.876;2023-02-20T14:38:48;8.80;99.90
13673;DHT22;6909;52.202;9.876;2023-02-20T14:41:20;8.80;99.90
13673;DHT22;6909;52.202;9.876;2023-02-20T14:43:55;8.80;99.90
13673;DHT22;6909;52.202;9.876;2023-02-20T14:46:24;8.80;99.90
13673;DHT22;6909;52.202;9.876;2023-02-20T14:49:03;8.80;99.90
13673;DHT22;6909;52.202;9.876;2023-02-20T14:51:30;8.90;99.90
13673;DHT22;6909;52.202;9.876;2023-02-20T14:53:58;8.90;99.90
13673;DHT22;6909;52.202;9.876;2023-02-20T14:56:25;8.80;99.90
13673;DHT22;6909;52.202;9.876;2023-02-20T14:58:54;8.80;99.90
13673;DHT22;6909;52.202;9.876;2023-02-20T15:01:33;8.70;99.90
13673;DHT22;6909;52.202;9.876;2023-02-20T15:04:06;8.70;99.90
13673;DHT22;6909;52.202;9.876;2023-02-20T15:06:35;8.70;99.90
13673;DHT22;6909;52.202;9.876;2023-02-20T15:09:03;8.70;99.90
13673;DHT22;6909;52.202;9.876;2023-02-20T15:11:31;8.60;99.90
13673;DHT22;6909;52.202;9.876;2023-02-20T15:14:00;8.60;99.90
13673;DHT22;6909;52.202;9.876;2023-02-20T15:16:29;8.60;99.90
13673;DHT22;6909;52.202;9.876;2023-02-20T15:18:56;8.60;99.90
13673;DHT22;6909;52.202;9.876;2023-02-20T15:21:32;8.50;99.90
13673;DHT22;6909;52.202;9.876;2023-02-20T15:24:13;8.50;99.90
13673;DHT22;6909;52.202;9.876;2023-02-20T15:26:40;8.50;99.90
13673;DHT22;6909;52.202;9.876;2023-02-20T15:29:19;8.50;99.90
13673;DHT22;6909;52.202;9.876;2023-02-20T15:31:54;8.50;99.90
13673;DHT22;6909;52.202;9.876;2023-02-20T15:34:22;8.50;99.90
13673;DHT22;6909;52.202;9.876;2023-02-20T15:36:49;8.60;99.90
13673;DHT22;6909;52.202;9.876;2023-02-20T15:39:16;8.60;99.90
13673;DHT22;6909;52.202;9.876;2023-02-20T15:41:44;8.60;99.90
13673;DHT22;6909;52.202;9.876;2023-02-20T15:44:12;8.50;99.90
13673;DHT22;6909;52.202;9.876;2023-02-20T15:46:39;8.50;99.90
13673;DHT22;6909;52.202;9.876;2023-02-20T15:49:06;8.50;99.90
13673;DHT22;6909;52.202;9.876;2023-02-20T15:51:36;8.50;99.90
13673;DHT22;6909;52.202;9.876;2023-02-20T15:54:04;8.50;99.90
13673;DHT22;6909;52.202;9.876;2023-02-20T15:56:33;8.50;99.90
13673;DHT22;6909;52.202;9.876;2023-02-20T15:59:03;8.50;99.90
13673;DHT22;6909;52.202;9.876;2023-02-20T16:01:32;8.50;99.90
13673;DHT22;6909;52.202;9.876;2023-02-20T16:03:59;8.50;99.90
13673;DHT22;6909;52.202;9.876;2023-02-20T16:06:26;8.50;99.90
13673;DHT22;6909;52.202;9.876;2023-02-20T16:08:53;8.50;99.90
13673;DHT22;6909;52.202;9.876;2023-02-20T16:11:21;8.50;99.90
13673;DHT22;6909;52.202;9.876;2023-02-20T16:13:53;8.60;99.90
13673;DHT22;6909;52.202;9.876;2023-02-20T16:16:27;8.70;99.90
13673;DHT22;6909;52.202;9.876;2023-02-20T16:18:56;8.90;99.90
13673;DHT22;6909;52.202;9.876;2023-02-20T16:21:23;9.00;99.90
13673;DHT22;6909;52.202;9.876;2023-02-20T16:23:50;8.80;99.90
13673;DHT22;6909;52.202;9.876;2023-02-20T16:26:18;8.80;99.90
13673;DHT22;6909;52.202;9.876;2023-02-20T16:28:51;8.80;99.90
13673;DHT22;6909;52.202;9.876;2023-02-20T16:31:18;8.80;99.90
13673;DHT22;6909;52.202;9.876;2023-02-20T16:33:45;8.80;99.90
13673;DHT22;6909;52.202;9.876;2023-02-20T16:36:15;8.80;99.90